Decoded Metar for OBBI (BAHRAIN in BAHRAIN) (IATA:BAH) | Meteo·Mobile Aviation Weather
aviador You're here:

OBBI Decoded Metar

BAHRAIN in BAHRAIN
Report Time2018-10-20 18:30:00
UTC Time2018-10-20 18:53:57
Flight Rules vfr VFR
Wind090° at 04 kt
W.Decomp.*RWY 12: 3.4 kt HW 2.1 kt LCW
W.Rank090° ranks 8
Current wind is below 090° avg. (7.4)
Visibility9999 m
Phenomena:N/A
Clouds:N/A
Expected CloudBase > 3,200 ft AGL from Temp-Dew spread
CeilingNone
Temp29°C (ISA +14)
Dew Point21°C (62% RH)
Heat Index31.3°C
QNH1014 hPa
Density Alt1,909 ft
Elevation7 ft
Report Wrong Elevation
Raw Report
OBBI 201830Z 09004KT CAVOK 29/21 Q1014 NOSIG=

Extra information for OBBI:More info

Metar Taf Metar & Taf Last 4 Metars F.Rules Stats Wind Profile Meteogram Temp Stats Airport Information Weather charts Add Link Nearby VenuesMetar ALERT Operation Metar Decoded Social comments